Аэропорт: Шымкент. Шымкент

ICAO: UAII

METAR:
2018/09/23 11:00
UAII 231100Z 31007MPS CAVOK 24/05 Q1017 R28/0///70 NOSIG RMK QFE726/0968
METAR:
2018/09/23 12:18
TAF UAII 231100Z 2312/2412 33007MPS 6000 SCT050 BKN100 TX26/2409Z TN11/2401Z 
      TEMPO 2312/2318 30006G11MPS SCT040CB 
      TEMPO 2318/2403 10005MPS 
      TEMPO 2403/2409 23004G09MPS